Time;durP1;ratioP1;P1;durP2;ratioP2;P2;SDS_P1;SDS_P2;PMS_P1;PMS_P2;Temp;Humidity;BMP_temperature;BMP_pressure;BME280_temperature;BME280_humidity;BME280_pressure;Samples;Min_cycle;Max_cycle;Signal;HPM_P1;HPM_P2
2022/11/04 00:01:57;;;;;;;4.50;3.63;;;;;;;8.41;100.00;94889.56;5010777;28;20822;-70
2022/11/04 00:04:25;;;;;;;4.90;4.40;;;;;;;8.46;100.00;94882.34;5000595;28;21163;-70
2022/11/04 00:06:54;;;;;;;4.63;3.08;;;;;;;8.54;100.00;94893.91;5002791;28;24455;-70
2022/11/04 00:09:22;;;;;;;3.13;1.93;;;;;;;8.51;100.00;94887.19;5010657;28;20773;-70
2022/11/04 00:14:34;;;;;;;7.18;4.45;;;;;;;8.48;100.00;94900.28;5003081;28;20805;-70
2022/11/04 00:17:19;;;;;;;6.45;4.70;;;;;;;8.48;100.00;94908.84;5006754;28;24443;-70
2022/11/04 00:30:54;;;;;;;1.52;1.15;;;;;;;8.44;100.00;94922.88;5002903;28;20835;-70
2022/11/04 00:33:25;;;;;;;2.47;1.40;;;;;;;8.39;100.00;94919.81;5004522;28;20732;-70
2022/11/04 00:35:54;;;;;;;1.77;1.40;;;;;;;8.37;100.00;94915.63;5001068;28;20723;-70
2022/11/04 00:38:22;;;;;;;2.42;1.48;;;;;;;8.37;100.00;94918.22;5004644;28;24831;-70
2022/11/04 00:40:49;;;;;;;2.45;1.95;;;;;;;8.36;100.00;94914.81;5000923;28;20818;-70
2022/11/04 00:43:15;;;;;;;4.47;2.67;;;;;;;8.35;100.00;94922.69;5000835;28;24432;-70
2022/11/04 00:45:42;;;;;;;7.80;2.95;;;;;;;8.37;100.00;94920.81;5002669;28;24441;-70
2022/11/04 00:48:09;;;;;;;2.05;1.55;;;;;;;8.35;100.00;94915.75;5002854;28;24460;-70
2022/11/04 00:50:36;;;;;;;7.93;3.00;;;;;;;8.37;100.00;94913.91;5005390;28;24469;-70
2022/11/04 00:53:03;;;;;;;6.70;4.35;;;;;;;8.29;100.00;94911.00;5000900;28;21374;-70
2022/11/04 00:55:31;;;;;;;6.97;4.03;;;;;;;8.29;100.00;94926.47;5002288;28;25009;-71
2022/11/04 00:57:58;;;;;;;4.55;3.45;;;;;;;8.27;100.00;94925.78;5004101;28;20787;-70
2022/11/04 01:00:25;;;;;;;6.50;2.97;;;;;;;8.27;100.00;94922.34;5006787;28;20786;-70
2022/11/04 01:02:51;;;;;;;5.20;3.90;;;;;;;8.30;100.00;94927.31;4994500;28;24452;-70
2022/11/04 01:05:18;;;;;;;3.50;2.10;;;;;;;8.25;100.00;94935.34;5008209;28;24436;-70
2022/11/04 01:07:44;;;;;;;2.22;1.08;;;;;;;8.27;100.00;94938.66;5003239;28;24456;-70
2022/11/04 01:10:11;;;;;;;2.83;0.80;;;;;;;8.27;100.00;94930.94;5002582;28;24448;-70
2022/11/04 01:12:39;;;;;;;1.87;1.13;;;;;;;8.28;100.00;94932.56;5000324;28;20895;-70
2022/11/04 01:15:06;;;;;;;3.75;0.98;;;;;;;8.22;100.00;94917.50;5005134;28;20775;-70
2022/11/04 01:17:33;;;;;;;1.17;0.88;;;;;;;8.24;100.00;94913.91;5006685;28;24429;-70
2022/11/04 01:19:59;;;;;;;1.10;0.50;;;;;;;8.18;100.00;94908.31;5001420;28;21145;-70
2022/11/04 01:22:26;;;;;;;1.88;0.43;;;;;;;8.16;100.00;94916.16;5001790;28;20774;-71
2022/11/04 01:24:52;;;;;;;0.52;0.40;;;;;;;8.13;100.00;94920.72;5004124;28;20806;-70
2022/11/04 01:27:19;;;;;;;1.00;0.68;;;;;;;8.10;100.00;94929.47;5008352;28;21331;-70
2022/11/04 01:29:47;;;;;;;0.80;0.60;;;;;;;8.07;100.00;94937.41;5006702;28;24437;-71
2022/11/04 01:32:13;;;;;;;0.70;0.50;;;;;;;8.03;100.00;94937.72;5003344;28;20819;-70
2022/11/04 01:34:40;;;;;;;1.63;0.80;;;;;;;8.02;100.00;94936.88;5001749;28;20793;-70
2022/11/04 01:37:06;;;;;;;0.60;0.40;;;;;;;8.00;100.00;94939.56;5009673;28;21344;-70
2022/11/04 01:39:33;;;;;;;0.57;0.50;;;;;;;7.97;100.00;94936.34;4998445;28;20785;-70
2022/11/04 01:41:59;;;;;;;1.77;0.70;;;;;;;8.00;100.00;94931.00;5003166;28;25012;-70
2022/11/04 01:45:00;;;;;;;0.88;0.40;;;;;;;7.97;100.00;94921.72;5005734;28;24439;-70
2022/11/04 01:47:32;;;;;;;1.00;0.60;;;;;;;7.95;100.00;94920.16;4929290;29;21248;-70
2022/11/04 01:50:02;;;;;;;1.23;0.52;;;;;;;7.91;100.00;94939.34;4929459;29;21310;-70
2022/11/04 01:52:34;;;;;;;1.25;0.63;;;;;;;7.86;100.00;94936.22;4967437;28;20728;-70
2022/11/04 01:55:06;;;;;;;1.50;0.40;;;;;;;7.78;100.00;94931.56;5008992;28;21340;-71
2022/11/04 01:57:35;;;;;;;0.73;0.32;;;;;;;7.81;100.00;94928.78;5007069;28;20681;-70
2022/11/04 02:00:07;;;;;;;1.88;0.65;;;;;;;7.80;100.00;94923.75;5005017;28;21123;-70
2022/11/04 02:02:37;;;;;;;2.70;0.50;;;;;;;7.84;100.00;94914.88;5000997;28;20711;-71
2022/11/04 02:05:04;;;;;;;1.63;0.60;;;;;;;7.84;100.00;94920.03;5004456;28;21332;-70
2022/11/04 02:07:30;;;;;;;1.60;0.60;;;;;;;7.79;100.00;94920.34;5003835;28;24455;-70
2022/11/04 02:09:57;;;;;;;1.75;0.55;;;;;;;7.81;100.00;94922.81;5001270;28;21363;-70
2022/11/04 02:15:10;;;;;;;0.90;0.45;;;;;;;7.78;100.00;94934.16;5005518;28;21219;-70
2022/11/04 02:18:03;;;;;;;1.93;0.57;;;;;;;7.84;100.00;94925.19;5003352;28;24433;-70
2022/11/04 02:20:51;;;;;;;1.20;0.50;;;;;;;7.80;100.00;94936.66;4971158;28;24464;-71
2022/11/04 02:24:04;;;;;;;2.58;0.65;;;;;;;7.74;100.00;94932.69;5003678;28;20756;-71
2022/11/04 02:27:04;;;;;;;3.40;0.60;;;;;;;7.72;100.00;94935.38;5001363;28;20741;-71
2022/11/04 02:29:47;;;;;;;1.67;0.50;;;;;;;7.70;100.00;94926.09;5001583;28;20674;-71
2022/11/04 02:32:24;;;;;;;1.77;0.60;;;;;;;7.78;100.00;94902.41;5001944;28;20658;-71
2022/11/04 02:34:58;;;;;;;2.65;0.57;;;;;;;7.66;100.00;94898.88;5000613;28;20807;-71
2022/11/04 02:37:35;;;;;;;1.17;0.50;;;;;;;7.71;100.00;94913.13;5004078;28;20790;-71
2022/11/04 02:40:13;;;;;;;1.65;0.75;;;;;;;7.65;100.00;94908.34;4998767;28;20821;-71
2022/11/04 02:42:48;;;;;;;1.13;0.57;;;;;;;7.62;100.00;94903.41;5003213;28;20772;-71
2022/11/04 02:45:19;;;;;;;1.50;0.65;;;;;;;7.61;100.00;94909.50;5008540;28;21231;-71
2022/11/04 02:47:51;;;;;;;1.65;0.60;;;;;;;7.58;100.00;94919.16;5004231;28;21212;-71
2022/11/04 02:50:25;;;;;;;1.35;0.52;;;;;;;7.63;100.00;94927.41;5000887;28;20752;-70
2022/11/04 02:52:58;;;;;;;1.25;0.60;;;;;;;7.62;100.00;94918.88;5005968;28;20729;-70
2022/11/04 02:55:27;;;;;;;2.38;0.60;;;;;;;7.71;100.00;94910.56;5006679;28;20728;-70
2022/11/04 02:57:59;;;;;;;3.80;0.50;;;;;;;7.63;100.00;94910.19;4998978;28;24433;-70
2022/11/04 03:00:28;;;;;;;1.10;0.50;;;;;;;7.54;100.00;94907.41;5002578;28;20722;-70
2022/11/04 03:03:00;;;;;;;1.03;0.50;;;;;;;7.57;100.00;94891.75;5005928;28;20813;-70
2022/11/04 03:05:30;;;;;;;0.55;0.43;;;;;;;7.65;100.00;94892.91;5000695;28;20726;-70
2022/11/04 03:08:02;;;;;;;1.70;0.60;;;;;;;7.68;100.00;94904.75;4999549;28;20872;-70
2022/11/04 03:10:35;;;;;;;1.63;0.40;;;;;;;7.62;100.00;94918.03;4992313;28;20752;-70
2022/11/04 03:13:09;;;;;;;1.92;0.60;;;;;;;7.50;100.00;94917.91;5000578;28;20778;-70
2022/11/04 03:15:40;;;;;;;2.95;0.60;;;;;;;7.49;100.00;94908.53;5005397;28;24439;-70
2022/11/04 03:18:17;;;;;;;1.90;0.70;;;;;;;7.35;100.00;94897.47;4998560;28;20685;-70
2022/11/04 03:20:46;;;;;;;2.75;0.73;;;;;;;7.32;100.00;94893.31;5004209;28;21137;-70
2022/11/04 03:23:13;;;;;;;1.23;0.65;;;;;;;7.35;100.00;94892.31;5007121;28;24998;-70
2022/11/04 03:25:45;;;;;;;2.73;1.20;;;;;;;7.30;100.00;94920.91;5001507;28;24448;-70
2022/11/04 03:28:23;;;;;;;2.65;1.50;;;;;;;7.33;100.00;94923.28;5008495;28;20719;-71
2022/11/04 03:30:55;;;;;;;6.15;1.48;;;;;;;7.21;100.00;94916.34;4995343;28;24439;-70
2022/11/04 03:33:27;;;;;;;2.63;1.00;;;;;;;7.14;100.00;94920.25;5007224;28;21280;-70
2022/11/04 03:35:54;;;;;;;2.22;0.90;;;;;;;7.15;100.00;94934.75;5000259;28;20732;-70
2022/11/04 03:38:21;;;;;;;2.90;1.20;;;;;;;7.06;100.00;94932.78;5011146;28;24443;-70
2022/11/04 03:40:48;;;;;;;2.20;1.65;;;;;;;7.15;100.00;94927.84;5007048;28;21397;-70
2022/11/04 03:43:18;;;;;;;2.10;1.50;;;;;;;7.07;100.00;94937.00;5010964;28;24521;-70
2022/11/04 03:45:45;;;;;;;1.70;1.60;;;;;;;7.13;100.00;94950.31;4999499;28;24814;-70
2022/11/04 03:48:13;;;;;;;2.38;1.70;;;;;;;7.20;100.00;94956.75;5005544;28;24463;-70
2022/11/04 03:50:42;;;;;;;2.27;1.70;;;;;;;7.20;100.00;94954.16;5006378;28;20783;-70
2022/11/04 03:53:10;;;;;;;1.83;1.20;;;;;;;7.21;100.00;94949.84;5004041;28;24792;-71
2022/11/04 03:55:45;;;;;;;2.05;0.90;;;;;;;7.11;100.00;94935.88;5000188;28;20785;-70
2022/11/04 03:58:28;;;;;;;1.38;0.70;;;;;;;7.11;100.00;94939.28;5011793;28;21073;-70
2022/11/04 04:01:02;;;;;;;2.75;1.10;;;;;;;7.11;100.00;94943.59;5008846;28;20747;-70
2022/11/04 04:03:33;;;;;;;4.03;0.73;;;;;;;7.20;100.00;94948.19;5004784;28;24993;-71
2022/11/04 04:06:07;;;;;;;2.50;1.05;;;;;;;7.24;100.00;94950.47;5007591;28;24456;-70
2022/11/04 04:08:39;;;;;;;2.03;0.70;;;;;;;7.24;100.00;94949.66;5009885;28;24461;-71
2022/11/04 04:11:13;;;;;;;2.00;0.90;;;;;;;7.23;100.00;94956.56;5010367;28;24484;-71
2022/11/04 04:13:49;;;;;;;3.50;0.80;;;;;;;7.30;100.00;94959.53;5000788;28;20734;-70
2022/11/04 04:16:20;;;;;;;1.48;0.82;;;;;;;7.24;100.00;94957.38;5009269;28;24440;-70
2022/11/04 04:18:51;;;;;;;1.60;0.60;;;;;;;7.41;100.00;94948.56;5007080;28;20792;-70
2022/11/04 04:21:22;;;;;;;2.97;1.00;;;;;;;7.40;100.00;94955.47;5007943;28;21258;-70
2022/11/04 04:29:24;;;;;;;1.70;0.63;;;;;;;7.10;100.00;94962.56;5005889;28;24858;-70
2022/11/04 04:31:56;;;;;;;1.52;0.70;;;;;;;7.02;100.00;94961.28;5009423;28;24443;-70
2022/11/04 04:34:26;;;;;;;1.42;0.80;;;;;;;7.00;100.00;94963.09;5010335;28;24882;-70
2022/11/04 04:37:02;;;;;;;1.50;0.70;;;;;;;7.01;100.00;94963.97;5003435;28;25011;-70
2022/11/04 04:45:06;;;;;;;2.38;0.75;;;;;;;6.80;100.00;94958.38;5006518;28;24470;-69
2022/11/04 04:47:38;;;;;;;1.70;0.75;;;;;;;6.87;100.00;94961.41;5002703;28;24492;-69
2022/11/04 04:50:07;;;;;;;1.50;0.70;;;;;;;6.77;100.00;94959.38;5009354;28;24442;-69
2022/11/04 04:52:38;;;;;;;3.30;0.90;;;;;;;6.77;100.00;94955.97;5007614;28;24440;-70
2022/11/04 04:55:06;;;;;;;2.97;1.08;;;;;;;6.67;100.00;94947.16;5003849;28;24447;-71
2022/11/04 04:57:32;;;;;;;3.70;0.90;;;;;;;6.75;100.00;94926.94;5009840;28;24440;-71
2022/11/04 04:59:59;;;;;;;2.65;1.25;;;;;;;6.74;100.00;94927.84;5009751;28;24447;-71
2022/11/04 05:02:25;;;;;;;3.25;1.00;;;;;;;6.72;100.00;94919.41;5009673;28;25014;-71
2022/11/04 05:04:52;;;;;;;1.10;0.77;;;;;;;6.78;100.00;94903.56;5008750;28;24436;-70
2022/11/04 05:07:20;;;;;;;2.88;0.90;;;;;;;6.88;100.00;94903.84;5007214;28;24448;-70
2022/11/04 05:09:46;;;;;;;2.60;0.82;;;;;;;6.80;100.00;94891.44;5003963;28;24444;-70
2022/11/04 05:12:13;;;;;;;2.22;1.02;;;;;;;6.68;100.00;94889.66;5003581;28;24994;-70
2022/11/04 05:14:39;;;;;;;3.10;0.88;;;;;;;6.62;100.00;94880.53;5004641;28;24447;-70
2022/11/04 05:17:06;;;;;;;1.98;0.80;;;;;;;6.55;100.00;94876.69;5001148;28;24811;-71
2022/11/04 05:19:32;;;;;;;2.80;0.90;;;;;;;6.48;100.00;94871.09;5008739;28;24444;-71
2022/11/04 05:21:59;;;;;;;1.42;0.70;;;;;;;6.50;100.00;94871.84;5006708;28;24444;-71
2022/11/04 05:24:27;;;;;;;2.20;0.87;;;;;;;6.52;100.00;94869.16;4999312;28;25098;-71
2022/11/04 05:26:53;;;;;;;1.23;0.77;;;;;;;6.50;100.00;94871.84;5000804;28;24780;-70
2022/11/04 05:29:20;;;;;;;5.07;2.78;;;;;;;6.52;100.00;94880.25;5003876;28;24457;-71
2022/11/04 05:31:47;;;;;;;6.70;4.57;;;;;;;6.58;100.00;94883.41;5006540;28;24452;-71
2022/11/04 05:34:14;;;;;;;3.30;2.55;;;;;;;6.66;100.00;94881.19;5006520;28;25022;-70
2022/11/04 05:36:40;;;;;;;2.17;0.88;;;;;;;6.70;100.00;94898.06;5001923;28;25016;-70
2022/11/04 05:39:08;;;;;;;3.03;0.95;;;;;;;6.74;100.00;94908.09;5001284;28;25032;-70
2022/11/04 05:41:36;;;;;;;2.15;0.80;;;;;;;6.82;100.00;94914.50;5003597;28;24989;-70
2022/11/04 05:44:04;;;;;;;2.88;0.80;;;;;;;6.84;100.00;94928.13;5002302;28;25074;-71
2022/11/04 05:46:31;;;;;;;1.45;0.82;;;;;;;6.83;100.00;94926.47;5004183;28;25000;-70
2022/11/04 05:48:57;;;;;;;2.05;0.68;;;;;;;6.81;100.00;94929.13;4996176;28;24527;-71
2022/11/04 05:51:26;;;;;;;1.50;0.80;;;;;;;6.63;100.00;94931.06;4991184;28;24416;-71
2022/11/04 05:53:53;;;;;;;2.17;0.90;;;;;;;6.57;100.00;94933.22;4999682;28;24440;-71
2022/11/04 05:56:19;;;;;;;2.60;0.90;;;;;;;6.47;100.00;94930.34;4992880;28;24433;-71
2022/11/04 05:58:47;;;;;;;2.63;0.93;;;;;;;6.54;100.00;94921.34;4997659;28;25062;-71
2022/11/04 06:01:24;;;;;;;2.77;0.83;;;;;;;6.42;100.00;94912.63;5001752;28;25044;-71
2022/11/04 06:03:51;;;;;;;2.20;0.90;;;;;;;6.45;100.00;94906.47;5007094;28;24425;-71
2022/11/04 06:06:17;;;;;;;2.20;0.80;;;;;;;6.39;100.00;94904.28;5000972;28;24436;-71
2022/11/04 06:08:44;;;;;;;2.00;0.90;;;;;;;6.36;100.00;94900.13;5005477;28;25054;-71
2022/11/04 06:11:10;;;;;;;5.32;1.20;;;;;;;6.21;100.00;94903.63;4998833;28;24436;-71
2022/11/04 06:13:37;;;;;;;2.53;1.00;;;;;;;6.24;100.00;94895.72;5003035;28;24458;-71
2022/11/04 06:16:05;;;;;;;1.60;0.88;;;;;;;6.28;100.00;94899.78;4997031;28;24452;-71
2022/11/04 06:18:31;;;;;;;2.35;0.88;;;;;;;6.14;100.00;94903.16;5004266;28;24436;-71
2022/11/04 06:21:21;;;;;;;1.48;0.80;;;;;;;6.14;100.00;94902.31;5006836;28;24494;-71
2022/11/04 06:23:48;;;;;;;1.50;0.60;;;;;;;6.24;100.00;94893.16;5004132;28;24463;-71
2022/11/04 06:26:15;;;;;;;1.90;0.80;;;;;;;6.32;100.00;94890.94;5002245;28;25127;-72
2022/11/04 06:28:42;;;;;;;2.00;0.60;;;;;;;6.30;100.00;94901.34;4996578;28;24998;-72
2022/11/04 06:31:11;;;;;;;3.47;0.90;;;;;;;6.37;100.00;94913.81;5005572;28;24429;-71
2022/11/04 06:33:38;;;;;;;4.87;0.67;;;;;;;6.37;100.00;94922.34;4999477;28;24432;-72
2022/11/04 06:36:06;;;;;;;1.50;0.60;;;;;;;6.22;100.00;94930.97;5005018;28;24442;-71
2022/11/04 06:38:35;;;;;;;4.32;0.73;;;;;;;6.07;100.00;94935.28;5004565;28;24444;-72
2022/11/04 06:41:01;;;;;;;2.25;0.93;;;;;;;6.06;100.00;94931.88;5007827;28;24495;-72
2022/11/04 06:43:28;;;;;;;2.60;1.85;;;;;;;6.08;100.00;94944.63;5006579;28;24440;-72
2022/11/04 06:45:55;;;;;;;3.65;1.95;;;;;;;6.13;100.00;94945.22;5004108;28;25017;-71
2022/11/04 06:48:23;;;;;;;4.60;1.92;;;;;;;6.19;100.00;94941.44;5005832;28;24547;-71
2022/11/04 06:50:50;;;;;;;6.13;3.03;;;;;;;5.96;100.00;94948.75;5001833;28;24448;-71
2022/11/04 06:53:16;;;;;;;3.78;3.00;;;;;;;5.90;100.00;94951.66;4997130;28;24449;-72
2022/11/04 06:55:43;;;;;;;5.32;3.20;;;;;;;5.95;100.00;94952.25;5003457;28;25090;-72
2022/11/04 06:58:10;;;;;;;7.07;3.80;;;;;;;6.07;100.00;94956.66;5006622;28;24434;-72
2022/11/04 07:00:37;;;;;;;6.03;3.50;;;;;;;6.15;100.00;94952.81;4995652;28;24447;-71
2022/11/04 07:03:03;;;;;;;6.20;2.80;;;;;;;6.20;100.00;94951.66;4997345;28;24443;-71
2022/11/04 07:05:33;;;;;;;4.15;2.20;;;;;;;6.23;100.00;94954.03;5000347;28;24440;-71
2022/11/04 07:07:59;;;;;;;3.00;2.58;;;;;;;6.25;100.00;94949.63;4997351;28;24510;-71
2022/11/04 07:10:26;;;;;;;2.72;1.90;;;;;;;6.16;100.00;94946.78;5007319;28;25020;-71
2022/11/04 07:12:53;;;;;;;4.05;1.70;;;;;;;6.14;100.00;94949.44;5012667;28;24440;-71
2022/11/04 07:15:20;;;;;;;2.67;1.60;;;;;;;6.15;100.00;94939.97;5006786;28;24494;-71
2022/11/04 07:17:47;;;;;;;2.05;1.40;;;;;;;6.10;100.00;94936.84;5001330;28;24433;-71
2022/11/04 07:20:13;;;;;;;2.60;1.38;;;;;;;6.03;100.00;94931.22;5002556;28;24803;-71
2022/11/04 07:22:41;;;;;;;2.08;1.20;;;;;;;6.10;100.00;94927.38;5011519;28;24539;-72
2022/11/04 07:25:09;;;;;;;1.50;1.20;;;;;;;6.22;100.00;94926.66;5003803;28;24440;-72
2022/11/04 07:27:35;;;;;;;1.80;1.30;;;;;;;6.13;100.00;94931.53;5007383;28;25021;-71
2022/11/04 07:30:02;;;;;;;2.60;1.42;;;;;;;6.06;100.00;94933.63;5005515;28;24452;-72
2022/11/04 07:32:29;;;;;;;2.05;1.23;;;;;;;6.06;100.00;94929.31;5009474;28;24433;-71
2022/11/04 07:34:55;;;;;;;2.43;1.70;;;;;;;6.10;100.00;94927.38;5008384;28;24439;-71
2022/11/04 07:37:22;;;;;;;3.22;1.90;;;;;;;6.12;100.00;94935.00;5010604;28;24433;-71
2022/11/04 07:39:49;;;;;;;5.03;1.58;;;;;;;6.06;100.00;94924.16;5008794;28;24456;-71
2022/11/04 07:42:16;;;;;;;1.73;1.15;;;;;;;6.06;100.00;94919.03;5010797;28;24447;-71
2022/11/04 07:44:42;;;;;;;3.53;1.10;;;;;;;6.07;100.00;94919.84;5006622;28;24442;-71
2022/11/04 07:47:09;;;;;;;1.75;1.00;;;;;;;6.12;100.00;94917.00;5005182;28;25026;-71
2022/11/04 07:49:35;;;;;;;3.22;1.20;;;;;;;6.31;100.00;94917.59;5003970;28;24465;-70
2022/11/04 07:52:02;;;;;;;1.55;1.08;;;;;;;6.49;100.00;94913.09;4998113;28;24429;-70
2022/11/04 07:54:29;;;;;;;2.85;1.13;;;;;;;6.57;100.00;94915.19;5006228;28;24859;-71
2022/11/04 07:56:57;;;;;;;2.88;1.50;;;;;;;6.60;100.00;94915.00;5002645;28;24443;-71
2022/11/04 07:59:24;;;;;;;2.03;1.33;;;;;;;6.58;100.00;94916.84;5005591;28;24443;-74
2022/11/04 08:01:51;;;;;;;2.38;1.40;;;;;;;6.52;100.00;94908.56;5004801;28;25020;-71
2022/11/04 08:04:18;;;;;;;3.10;1.30;;;;;;;6.52;100.00;94903.41;5005901;28;24432;-70
2022/11/04 08:06:45;;;;;;;1.10;0.93;;;;;;;6.49;100.00;94907.94;4999376;28;24445;-71
2022/11/04 08:09:12;;;;;;;2.70;1.10;;;;;;;6.49;100.00;94913.09;5004186;28;24471;-71
2022/11/04 08:11:39;;;;;;;1.27;1.10;;;;;;;6.45;100.00;94912.44;5003128;28;24523;-71
2022/11/04 08:14:06;;;;;;;4.70;0.93;;;;;;;6.43;100.00;94903.16;5007119;28;24827;-72
2022/11/04 08:16:33;;;;;;;2.35;0.90;;;;;;;6.43;100.00;94916.03;5009851;28;24479;-71
2022/11/04 08:19:00;;;;;;;4.22;1.13;;;;;;;6.50;100.00;94900.13;5010906;28;24463;-71
2022/11/04 08:21:27;;;;;;;1.80;1.00;;;;;;;6.55;100.00;94898.09;5010172;28;24454;-71
2022/11/04 08:23:54;;;;;;;2.40;0.97;;;;;;;6.59;100.00;94891.00;5006050;28;24647;-71
2022/11/04 08:26:22;;;;;;;1.83;1.05;;;;;;;6.68;100.00;94887.91;5009184;28;24439;-71
2022/11/04 08:28:49;;;;;;;1.77;1.10;;;;;;;6.64;100.00;94883.84;5005391;28;24461;-71
2022/11/04 08:31:19;;;;;;;3.00;0.85;;;;;;;6.74;100.00;94882.34;5009529;28;24444;-72
2022/11/04 08:33:46;;;;;;;1.88;1.10;;;;;;;6.90;100.00;94889.97;5004110;28;24795;-71
2022/11/04 08:36:15;;;;;;;1.45;1.05;;;;;;;7.08;100.00;94905.97;5002451;28;25040;-72
2022/11/04 08:38:42;;;;;;;2.17;1.13;;;;;;;7.01;100.00;94904.75;5003036;28;24998;-72
2022/11/04 08:41:11;;;;;;;3.03;1.30;;;;;;;7.12;100.00;94902.31;5008235;28;24446;-72
2022/11/04 08:43:38;;;;;;;3.35;1.40;;;;;;;7.29;100.00;94898.66;4996963;28;24432;-71
2022/11/04 08:46:07;;;;;;;10.43;2.13;;;;;;;7.41;100.00;94895.28;5008553;28;21140;-72
2022/11/04 08:48:37;;;;;;;4.10;2.20;;;;;;;7.48;100.00;94899.13;5004990;28;21368;-72
2022/11/04 08:51:05;;;;;;;3.65;2.03;;;;;;;7.54;100.00;94903.06;5003357;28;20805;-72
2022/11/04 08:53:32;;;;;;;3.67;1.98;;;;;;;7.50;100.00;94899.88;5004202;28;24447;-72
2022/11/04 08:55:58;;;;;;;4.65;2.45;;;;;;;7.53;100.00;94898.84;5009891;28;20774;-70
2022/11/04 08:58:25;;;;;;;6.28;2.30;;;;;;;7.63;100.00;94901.66;5008292;28;21169;-72
2022/11/04 09:00:51;;;;;;;7.78;4.18;;;;;;;7.51;100.00;94898.13;5010132;28;20775;-72
2022/11/04 09:03:18;;;;;;;3.42;1.73;;;;;;;7.55;100.00;94901.31;5004559;28;24439;-72
2022/11/04 09:05:47;;;;;;;2.90;1.42;;;;;;;7.58;100.00;94903.69;5003919;28;24536;-71
2022/11/04 09:08:15;;;;;;;3.50;1.30;;;;;;;7.66;100.00;94904.84;5004096;28;20809;-72
2022/11/04 09:10:42;;;;;;;4.05;1.33;;;;;;;7.69;100.00;94911.56;5007772;28;21266;-71
2022/11/04 09:13:10;;;;;;;2.92;1.23;;;;;;;7.70;100.00;94919.19;5005801;28;20790;-71
2022/11/04 09:15:36;;;;;;;2.92;1.10;;;;;;;7.82;100.00;94932.19;4998752;28;24445;-71
2022/11/04 09:18:04;;;;;;;2.30;1.15;;;;;;;7.83;100.00;94936.44;5005725;28;20799;-71
2022/11/04 09:20:31;;;;;;;3.08;1.48;;;;;;;7.98;100.00;94936.25;5005752;28;24441;-71
2022/11/04 09:22:59;;;;;;;2.63;1.10;;;;;;;8.08;100.00;94936.47;5005167;28;24475;-71
2022/11/04 09:25:26;;;;;;;5.63;1.55;;;;;;;8.39;100.00;94953.34;4999676;28;24459;-72
2022/11/04 09:27:52;;;;;;;3.67;1.58;;;;;;;8.45;100.00;94942.63;5000039;28;24539;-71
2022/11/04 09:30:19;;;;;;;5.07;1.40;;;;;;;8.24;100.00;94951.78;5000053;28;24456;-71
2022/11/04 09:32:45;;;;;;;5.53;1.35;;;;;;;8.10;100.00;94955.25;4998871;28;20784;-72
2022/11/04 09:35:12;;;;;;;4.05;1.27;;;;;;;8.15;100.00;94960.09;5001193;28;24442;-71
2022/11/04 09:37:38;;;;;;;3.22;1.13;;;;;;;8.26;100.00;94957.63;4992798;28;24444;-72
2022/11/04 09:40:11;;;;;;;5.90;1.85;;;;;;;8.29;100.00;94949.69;5004830;28;25017;-72
2022/11/04 09:42:49;;;;;;;6.93;1.45;;;;;;;8.21;100.00;94951.97;4999199;28;20750;-72
2022/11/04 09:45:18;;;;;;;5.65;1.52;;;;;;;8.16;100.00;94949.69;5001288;28;20677;-71
2022/11/04 09:47:49;;;;;;;5.40;1.52;;;;;;;8.12;100.00;94948.25;5006647;28;20781;-72
2022/11/04 09:50:21;;;;;;;9.57;1.80;;;;;;;8.13;100.00;94944.75;5009100;28;20810;-71
2022/11/04 09:52:54;;;;;;;6.68;1.73;;;;;;;8.23;100.00;94943.22;5001640;28;20681;-70
2022/11/04 09:55:28;;;;;;;6.07;1.70;;;;;;;8.34;100.00;94947.63;4999190;28;25013;-71
2022/11/04 09:57:57;;;;;;;5.18;1.33;;;;;;;8.34;100.00;94945.03;4995816;28;20822;-71
2022/11/04 10:00:25;;;;;;;6.63;1.50;;;;;;;8.41;100.00;94943.72;5007271;28;21175;-71
2022/11/04 10:03:01;;;;;;;4.25;1.50;;;;;;;8.50;100.00;94938.91;5006367;28;20780;-71
2022/11/04 10:05:52;;;;;;;4.00;1.38;;;;;;;8.69;100.00;94934.97;5000572;28;20819;-71
2022/11/04 10:08:31;;;;;;;3.65;1.40;;;;;;;8.78;100.00;94938.66;5009976;28;20811;-72
2022/11/04 10:11:05;;;;;;;3.97;1.67;;;;;;;8.78;100.00;94930.91;5002971;28;20754;-72
2022/11/04 10:13:54;;;;;;;4.88;1.55;;;;;;;8.77;100.00;94936.19;5005457;28;20709;-72
2022/11/04 10:16:40;;;;;;;4.00;1.60;;;;;;;8.91;100.00;94936.06;5008473;28;21346;-72
2022/11/04 10:19:19;;;;;;;5.00;1.42;;;;;;;9.25;100.00;94937.09;5008617;28;20714;-72
2022/11/04 10:21:52;;;;;;;3.67;1.30;;;;;;;9.21;100.00;94935.66;4998925;28;24448;-72
2022/11/04 10:24:24;;;;;;;6.67;1.60;;;;;;;9.28;100.00;94926.56;5000110;28;20696;-72
2022/11/04 10:26:57;;;;;;;4.15;1.45;;;;;;;9.23;100.00;94925.22;4993711;28;20775;-72
2022/11/04 10:29:29;;;;;;;3.15;1.23;;;;;;;9.13;100.00;94922.47;5006064;28;21294;-72
2022/11/04 10:31:59;;;;;;;7.60;1.70;;;;;;;9.07;100.00;94922.91;5004721;28;20650;-72
2022/11/04 10:34:32;;;;;;;4.93;1.55;;;;;;;9.07;100.00;94925.47;5002165;28;20786;-72
2022/11/04 10:36:59;;;;;;;4.18;1.23;;;;;;;9.16;100.00;94917.91;5007403;28;20665;-72
2022/11/04 10:39:28;;;;;;;4.50;1.50;;;;;;;9.13;100.00;94919.88;4999056;28;20786;-72
2022/11/04 10:41:58;;;;;;;4.20;1.23;;;;;;;9.17;100.00;94926.50;5000567;28;20723;-72
2022/11/04 10:44:27;;;;;;;4.65;1.63;;;;;;;9.14;100.00;94929.28;5005935;28;20749;-72
2022/11/04 10:47:04;;;;;;;5.35;1.70;;;;;;;9.32;100.00;94927.16;5009323;28;24440;-72
2022/11/04 10:50:15;;;;;;;3.58;1.33;;;;;;;9.30;100.00;94929.00;5003885;28;20717;-72
2022/11/04 10:52:42;;;;;;;4.50;1.40;;;;;;;9.49;100.00;94931.09;4928269;29;20805;-73
2022/11/04 10:55:18;;;;;;;3.22;1.10;;;;;;;9.48;100.00;94932.88;5001612;28;24444;-72
2022/11/04 10:57:46;;;;;;;4.35;1.45;;;;;;;9.41;100.00;94921.31;5007074;28;20663;-72
2022/11/04 11:00:33;;;;;;;4.55;1.48;;;;;;;9.42;100.00;94923.81;5001959;28;24455;-72
2022/11/04 11:02:59;;;;;;;5.45;1.35;;;;;;;9.48;100.00;94914.78;5007264;28;20727;-72
2022/11/04 11:05:28;;;;;;;3.25;1.52;;;;;;;9.31;100.00;94921.16;5002465;28;24460;-72
2022/11/04 11:07:57;;;;;;;5.28;1.40;;;;;;;9.30;100.00;94916.09;5006497;28;24491;-71
2022/11/04 11:10:26;;;;;;;5.30;1.80;;;;;;;9.39;100.00;94905.13;5002686;28;20846;-71
2022/11/04 11:12:56;;;;;;;5.93;1.40;;;;;;;9.39;100.00;94905.94;5011696;28;24433;-71
2022/11/04 11:15:31;;;;;;;4.40;1.10;;;;;;;9.40;100.00;94910.16;5002498;28;20784;-72
2022/11/04 11:18:03;;;;;;;6.72;1.38;;;;;;;9.41;100.00;94893.72;5007015;28;24527;-73
2022/11/04 11:20:32;;;;;;;5.30;1.60;;;;;;;9.57;100.00;94900.38;5003864;28;24446;-71
2022/11/04 11:23:00;;;;;;;4.97;1.60;;;;;;;9.60;100.00;94890.66;5006994;28;24436;-72
2022/11/04 11:25:28;;;;;;;8.10;1.60;;;;;;;9.57;100.00;94887.47;5008656;28;20827;-71
2022/11/04 11:27:59;;;;;;;5.10;1.70;;;;;;;9.76;100.00;94889.53;5012151;28;24439;-71
2022/11/04 11:30:28;;;;;;;6.32;2.03;;;;;;;9.79;100.00;94894.44;5005022;28;24462;-72
2022/11/04 11:33:02;;;;;;;6.20;1.65;;;;;;;9.74;100.00;94883.63;5007077;28;24433;-72
2022/11/04 11:35:33;;;;;;;4.93;1.83;;;;;;;9.81;100.00;94879.66;5007921;28;24801;-72
2022/11/04 11:38:04;;;;;;;3.97;1.38;;;;;;;9.84;100.00;94885.41;5003240;28;25003;-73
2022/11/04 11:40:36;;;;;;;3.00;1.15;;;;;;;9.97;100.00;94874.97;5009445;28;24444;-71
2022/11/04 11:43:05;;;;;;;3.40;1.55;;;;;;;10.04;100.00;94870.19;5011913;28;24440;-71
2022/11/04 11:45:32;;;;;;;4.50;1.50;;;;;;;10.07;100.00;94873.34;5007833;28;24440;-70
2022/11/04 11:47:59;;;;;;;5.15;1.55;;;;;;;10.07;100.00;94872.53;5012555;28;24428;-72
2022/11/04 11:50:31;;;;;;;4.15;1.25;;;;;;;10.22;100.00;94873.16;5008939;28;24464;-72
2022/11/04 11:53:14;;;;;;;4.65;1.33;;;;;;;10.42;100.00;94872.50;5006448;28;24441;-72
2022/11/04 11:55:46;;;;;;;5.28;1.27;;;;;;;10.59;100.00;94863.41;5009289;28;24440;-73
2022/11/04 11:58:25;;;;;;;7.25;1.55;;;;;;;10.56;100.00;94868.84;5011747;28;20885;-72
2022/11/04 12:00:54;;;;;;;4.72;1.60;;;;;;;10.33;100.00;94870.59;5010330;28;24432;-73
2022/11/04 12:03:29;;;;;;;4.00;1.10;;;;;;;10.16;100.00;94874.44;5010355;28;24444;-73
2022/11/04 12:06:13;;;;;;;3.67;1.45;;;;;;;10.07;100.00;94877.72;5001313;28;24451;-72
2022/11/04 12:09:02;;;;;;;5.57;1.48;;;;;;;10.08;100.00;94872.41;5002714;28;24499;-73
2022/11/04 12:11:39;;;;;;;4.38;1.50;;;;;;;10.05;100.00;94866.63;5010488;28;24474;-73
2022/11/04 12:14:14;;;;;;;7.63;1.53;;;;;;;10.06;100.00;94873.47;5006622;28;24447;-73
2022/11/04 12:16:51;;;;;;;3.47;1.10;;;;;;;10.11;100.00;94869.59;5000053;28;25042;-73